Ms Janet — WDI5213 — position and weather

sailwx.info

Track history (hours):
 
Tides and Currents Weather Stations Pressure Air Temp Water Temp Dewpoint Dewpoint Depression Visibility Wind Speed Wind Dir Waves Ship Positions

Ms Janet

Owner: Ms Janet, LLC., Norfolk, VA. More information available from US FCC via Universal Licensing System and Coast Guard Vessel Documentation Center.

Last reported at 2018-Feb-24 04:00 UTC. Time now 2018-Feb-24 04:28 UTC.
Position N 39°13' W 076°32'.

Length 29 m; draft 4 m.

Type: Tug. MMSI: 367706270.

Date/timePositionNaut miles runAvg speedWind from/ knotsBaromVisibWave heightAir tempDewpointWater temp
2018-Feb-24 04:00N 39°13' W 076°32'0 0.0
2018-Feb-24 03:14N 39°13' W 076°32'0 0.0
2018-Feb-24 03:00N 39°13' W 076°32'0 0.0
2018-Feb-24 01:31N 39°13' W 076°32'0 0.0
2018-Feb-24 01:19N 39°13' W 076°32'0 0.0
2018-Feb-24 00:56N 39°13' W 076°32'0 0.0
2018-Feb-24 00:22N 39°13' W 076°32'0 0.0
2018-Feb-24 00:00N 39°13' W 076°32'0 0.0
2018-Feb-23 23:30N 39°13' W 076°32'0 0.0
2018-Feb-23 23:00N 39°13' W 076°32'0 0.0
2018-Feb-23 22:30N 39°13' W 076°32'0 0.0
2018-Feb-23 21:58N 39°13' W 076°32'0 0.0
2018-Feb-23 21:30N 39°13' W 076°32'0 0.0
2018-Feb-23 21:00N 39°13' W 076°32'0 0.0
2018-Feb-23 20:30N 39°13' W 076°32'0 0.0
2018-Feb-23 19:58N 39°13' W 076°32'0 0.0
2018-Feb-23 19:30N 39°13' W 076°32'0 0.0
2018-Feb-23 19:00N 39°13' W 076°32'0 0.0
2018-Feb-23 18:30N 39°13' W 076°32'2 3.4
2018-Feb-23 17:56N 39°13' W 076°35'0 0.0
2018-Feb-23 17:30N 39°13' W 076°35'0 0.0
2018-Feb-23 16:52N 39°13' W 076°35'0 0.0
2018-Feb-23 16:30N 39°13' W 076°35'0 0.1
2018-Feb-23 15:42N 39°13' W 076°35'1 3.3
2018-Feb-23 15:29N 39°13' W 076°34'3 6.3
2018-Feb-23 14:59N 39°11' W 076°31'0 0.7
2018-Feb-23 14:24N 39°11' W 076°31'1 3.6
2018-Feb-23 14:00N 39°12' W 076°31'3 4.1
2018-Feb-23 13:19N 39°13' W 076°35'1 2.9
2018-Feb-23 13:00N 39°13' W 076°33'3 5.1
2018-Feb-23 12:27N 39°12' W 076°31'1 1.8
2018-Feb-23 11:58N 39°11' W 076°31'2 4.4
2018-Feb-23 11:30N 39°13' W 076°32'0 1.0
2018-Feb-23 11:00N 39°13' W 076°32'0 0.0
2018-Feb-23 10:30N 39°13' W 076°32'0 0.0
2018-Feb-23 10:00N 39°13' W 076°32'0 0.0
2018-Feb-23 09:30N 39°13' W 076°32'0 0.0
2018-Feb-23 09:00N 39°13' W 076°32'0 0.0
2018-Feb-23 08:30N 39°13' W 076°32'0 0.0
2018-Feb-23 08:00N 39°13' W 076°32'0 0.0
2018-Feb-23 07:30N 39°13' W 076°32'0 0.0
2018-Feb-23 07:00N 39°13' W 076°32'0 0.0
2018-Feb-23 06:30N 39°13' W 076°32'0 0.0
2018-Feb-23 06:00N 39°13' W 076°32'0 0.0
2018-Feb-23 05:30N 39°13' W 076°32'0 0.0
2018-Feb-23 05:00N 39°13' W 076°32'0 0.0
2018-Feb-23 04:30N 39°13' W 076°32'0 0.0
2018-Feb-23 04:00N 39°13' W 076°32'0 0.0
2018-Feb-23 03:30N 39°13' W 076°32'0 0.0
2018-Feb-23 03:00N 39°13' W 076°32'0 0.0
2018-Feb-23 02:30N 39°13' W 076°32'0 0.0
2018-Feb-23 02:00N 39°13' W 076°32'0 0.0
2018-Feb-23 01:30N 39°13' W 076°32'0 0.0
2018-Feb-23 01:00N 39°13' W 076°32'0 0.0
2018-Feb-23 00:30N 39°13' W 076°32'0 0.0
2018-Feb-22 23:56N 39°13' W 076°32'0 0.0
2018-Feb-22 23:29N 39°13' W 076°32'0 0.0
2018-Feb-22 21:25N 39°13' W 076°32'2 4.8
2018-Feb-22 20:59N 39°11' W 076°31'0 0.0
2018-Feb-22 20:30N 39°11' W 076°31'0 0.5
2018-Feb-22 20:00N 39°11' W 076°31'0 0.0
2018-Feb-22 19:30N 39°11' W 076°31'0 0.0
2018-Feb-22 18:58N 39°11' W 076°31'1 1.1
2018-Feb-22 18:30N 39°11' W 076°31'3 5.5
2018-Feb-22 18:00N 39°13' W 076°33'1 1.7
2018-Feb-22 17:29N 39°13' W 076°34'2 3.3
2018-Feb-22 17:00N 39°13' W 076°32'0 0.0
2018-Feb-22 16:30N 39°13' W 076°32'0 0.0
2018-Feb-22 16:00N 39°13' W 076°32'0 0.0
2018-Feb-22 15:30N 39°13' W 076°32'0 0.0
2018-Feb-22 15:00N 39°13' W 076°32'0 0.0
2018-Feb-22 14:30N 39°13' W 076°32'0 0.2
2018-Feb-22 14:00N 39°13' W 076°32'2 4.2
2018-Feb-22 13:30N 39°11' W 076°31'0 0.6
2018-Feb-22 13:00N 39°11' W 076°31'0 0.0
2018-Feb-22 12:28N 39°11' W 076°31'0 0.2
2018-Feb-22 12:00N 39°11' W 076°31'0 0.6
2018-Feb-22 11:30N 39°11' W 076°31'1 3.0
2018-Feb-22 11:00N 39°12' W 076°31'3 5.7
2018-Feb-22 10:30N 39°13' W 076°35'0 0.1
2018-Feb-22 10:00N 39°13' W 076°35'0 0.2
2018-Feb-22 09:23N 39°13' W 076°35'0 0.0
2018-Feb-22 08:59N 39°13' W 076°35'0 0.0
2018-Feb-22 08:30N 39°13' W 076°35'0 0.3
2018-Feb-22 08:00N 39°13' W 076°35'2 0.8
2018-Feb-22 05:35N 39°13' W 076°32'0 0.0
2018-Feb-22 05:30N 39°13' W 076°32'0 0.0
2018-Feb-22 04:59N 39°13' W 076°32'0 0.0
2018-Feb-22 04:28N 39°13' W 076°32'0 0.0
2018-Feb-22 04:00N 39°13' W 076°32'0 0.0
2018-Feb-22 03:29N 39°13' W 076°32'0 0.0
2018-Feb-22 03:00N 39°13' W 076°32'0 0.0
2018-Feb-22 02:27N 39°13' W 076°32'0 0.0
2018-Feb-22 02:00N 39°13' W 076°32'0 0.0
2018-Feb-22 00:45N 39°13' W 076°32'0 0.0
2018-Feb-22 00:18N 39°13' W 076°32'0 0.0
2018-Feb-22 00:00N 39°13' W 076°32'0 0.0
2018-Feb-21 23:28N 39°13' W 076°32'0 0.0
2018-Feb-21 23:00N 39°13' W 076°32'0 0.0
2018-Feb-21 22:30N 39°13' W 076°32'0 0.0
2018-Feb-21 21:49N 39°13' W 076°32'0 0.0
2018-Feb-21 21:26N 39°13' W 076°32'0 0.0
2018-Feb-21 20:58N 39°13' W 076°32'0 0.0
2018-Feb-21 20:30N 39°13' W 076°32'0 0.0
2018-Feb-21 20:00N 39°13' W 076°32'0 0.0
2018-Feb-21 19:30N 39°13' W 076°32'0 0.0
2018-Feb-21 18:32N 39°13' W 076°32'0 0.0
2018-Feb-21 18:30N 39°13' W 076°32'0 0.0
2018-Feb-21 17:55N 39°13' W 076°32'0 0.0
2018-Feb-21 17:05N 39°13' W 076°32'0 0.0
2018-Feb-21 16:52N 39°13' W 076°32'0 0.0
2018-Feb-21 15:30N 39°13' W 076°32'0 0.0
2018-Feb-21 14:51N 39°13' W 076°32'0 0.0
2018-Feb-21 14:29N 39°13' W 076°32'0 0.0
2018-Feb-21 14:00N 39°13' W 076°32'0 0.0
2018-Feb-21 13:29N 39°13' W 076°32'1 1.3
2018-Feb-21 13:00N 39°13' W 076°33'2 3.4
2018-Feb-21 12:30N 39°13' W 076°35'0 0.0
2018-Feb-21 12:00N 39°13' W 076°35'0 0.0
2018-Feb-21 11:30N 39°13' W 076°35'0 0.0
2018-Feb-21 11:00N 39°13' W 076°35'0 0.0
2018-Feb-21 10:30N 39°13' W 076°35'0 0.0
2018-Feb-21 10:00N 39°13' W 076°35'0 0.0
2018-Feb-21 09:30N 39°13' W 076°35'0 0.0
2018-Feb-21 09:00N 39°13' W 076°35'0 0.0
2018-Feb-21 08:30N 39°13' W 076°35'0 0.0
2018-Feb-21 08:00N 39°13' W 076°35'0 0.0
2018-Feb-21 07:30N 39°13' W 076°35'0 0.0
2018-Feb-21 07:00N 39°13' W 076°35'0 0.0
2018-Feb-21 06:30N 39°13' W 076°35'0 0.0
2018-Feb-21 06:00N 39°13' W 076°35'0 0.0
2018-Feb-21 05:30N 39°13' W 076°35'0 0.0
2018-Feb-21 05:00N 39°13' W 076°35'0 0.0
2018-Feb-21 04:30N 39°13' W 076°35'0 0.0
2018-Feb-21 04:00N 39°13' W 076°35'1 1.9
2018-Feb-21 03:30N 39°13' W 076°34'1 2.2
2018-Feb-21 02:58N 39°13' W 076°32'0 0.0
2018-Feb-21 02:30N 39°13' W 076°32'2 3.4
2018-Feb-21 02:00N 39°13' W 076°35'1 1.3
2018-Feb-21 01:30N 39°13' W 076°34'3 6.2
2018-Feb-21 01:00N 39°11' W 076°31'0 0.3
2018-Feb-21 00:30N 39°11' W 076°31'0 0.2
2018-Feb-20 23:58N 39°11' W 076°31'2 3.9
2018-Feb-20 23:30N 39°13' W 076°32'1 1.5
2018-Feb-20 23:00N 39°13' W 076°32'0 0.0
2018-Feb-20 22:28N 39°13' W 076°32'0 0.0
2018-Feb-20 22:00N 39°13' W 076°32'0 0.0
2018-Feb-20 21:30N 39°13' W 076°32'0 0.0
2018-Feb-20 20:59N 39°13' W 076°32'0 0.0
2018-Feb-20 20:28N 39°13' W 076°32'0 0.0
2018-Feb-20 19:52N 39°13' W 076°32'0 0.0
2018-Feb-20 19:30N 39°13' W 076°32'0 0.0
2018-Feb-20 19:00N 39°13' W 076°32'0 0.0
2018-Feb-20 18:29N 39°13' W 076°32'0 0.0
2018-Feb-20 17:59N 39°13' W 076°32'0 0.0
2018-Feb-20 17:30N 39°13' W 076°32'0 0.0
2018-Feb-20 17:00N 39°13' W 076°32'0 0.0
2018-Feb-20 16:30N 39°13' W 076°32'0 0.0
2018-Feb-20 16:00N 39°13' W 076°32'0 0.0
2018-Feb-20 15:30N 39°13' W 076°32'0 0.0
2018-Feb-20 15:00N 39°13' W 076°32'0 0.0
2018-Feb-20 14:30N 39°13' W 076°32'0 0.0
2018-Feb-20 14:00N 39°13' W 076°32'0 0.0
2018-Feb-20 13:30N 39°13' W 076°32'0 0.0
2018-Feb-20 13:00N 39°13' W 076°32'0 0.0
2018-Feb-20 12:30N 39°13' W 076°32'0 0.0
2018-Feb-20 12:00N 39°13' W 076°32'0 0.0
2018-Feb-20 11:30N 39°13' W 076°32'0 0.0
2018-Feb-20 10:58N 39°13' W 076°32'0 0.0
2018-Feb-20 10:30N 39°13' W 076°32'0 0.0
2018-Feb-20 10:00N 39°13' W 076°32'0 0.0
2018-Feb-20 09:30N 39°13' W 076°32'0 0.0
2018-Feb-20 09:00N 39°13' W 076°32'0 0.0
2018-Feb-20 08:30N 39°13' W 076°32'0 0.0
2018-Feb-20 07:58N 39°13' W 076°32'0 0.0
2018-Feb-20 07:29N 39°13' W 076°32'0 0.0
2018-Feb-20 07:00N 39°13' W 076°32'0 0.0
2018-Feb-20 06:30N 39°13' W 076°32'0 0.0
2018-Feb-20 04:51N 39°13' W 076°32'0 0.0
2018-Feb-20 04:30N 39°13' W 076°32'0 0.0
2018-Feb-20 03:57N 39°13' W 076°32'0 0.0
2018-Feb-19 19:50N 39°13' W 076°32'0 0.0
2018-Feb-19 19:30N 39°13' W 076°32'0 0.0
2018-Feb-19 18:18N 39°13' W 076°32'0 0.0
2018-Feb-19 18:00N 39°13' W 076°32'0 0.0
2018-Feb-19 17:16N 39°13' W 076°32'0 0.0
2018-Feb-19 17:00N 39°13' W 076°32'0 0.0
2018-Feb-19 16:26N 39°13' W 076°32'0 0.0
2018-Feb-19 16:00N 39°13' W 076°32'0 0.0
2018-Feb-19 15:30N 39°13' W 076°32'0 0.0
2018-Feb-19 15:00N 39°13' W 076°32'0 0.0
2018-Feb-19 14:30N 39°13' W 076°32'0 0.0
2018-Feb-19 14:01N 39°13' W 076°32'0 0.0
2018-Feb-19 13:30N 39°13' W 076°32'0 0.0
2018-Feb-19 13:00N 39°13' W 076°32'0 0.0
2018-Feb-19 12:30N 39°13' W 076°32'0 0.1
2018-Feb-19 12:00N 39°13' W 076°32'0 0.1
2018-Feb-19 11:30N 39°13' W 076°32'0 0.0
2018-Feb-19 11:00N 39°13' W 076°32'0 0.0
2018-Feb-19 10:30N 39°13' W 076°32'0 0.0
2018-Feb-19 10:00N 39°13' W 076°32'0 0.0
2018-Feb-19 09:30N 39°13' W 076°32'0 0.0
2018-Feb-19 08:59N 39°13' W 076°32'0 0.0
2018-Feb-19 08:30N 39°13' W 076°32'0 0.0
2018-Feb-19 07:56N 39°13' W 076°32'0 0.2
2018-Feb-19 07:30N 39°13' W 076°32'2 3.5
2018-Feb-19 07:00N 39°13' W 076°35'0 0.2
2018-Feb-19 06:28N 39°13' W 076°35'0 0.1
2018-Feb-19 06:00N 39°13' W 076°35'0 0.4
2018-Feb-19 05:29N 39°14' W 076°35'3 6.9
2018-Feb-19 05:00N 39°12' W 076°31'1 1.5
2018-Feb-19 04:30N 39°11' W 076°31'3 5.3
2018-Feb-19 04:00N 39°13' W 076°33'1 2.6
2018-Feb-19 03:29N 39°13' W 076°35'0 0.0
2018-Feb-19 03:00N 39°13' W 076°35'0 0.0
2018-Feb-19 02:28N 39°13' W 076°35'2 4.0
2018-Feb-19 02:00N 39°13' W 076°32'3 5.0
2018-Feb-19 01:30N 39°11' W 076°31'2 4.0
2018-Feb-19 01:00N 39°13' W 076°32'2 4.0
2018-Feb-19 00:22N 39°13' W 076°35'0 0.3
2018-Feb-19 00:00N 39°13' W 076°35'0 0.0
2018-Feb-18 23:30N 39°13' W 076°35'0 0.0
2018-Feb-18 23:00N 39°13' W 076°35'2 3.7
2018-Feb-18 22:30N 39°13' W 076°32'2 3.8
2018-Feb-18 22:00N 39°13' W 076°35'0 0.0
2018-Feb-18 21:30N 39°13' W 076°35'0 0.0
2018-Feb-18 21:00N 39°13' W 076°35'0 0.0
2018-Feb-18 20:23N 39°13' W 076°35'0 0.0
2018-Feb-18 19:38N 39°13' W 076°35'0 0.0
2018-Feb-18 19:20N 39°13' W 076°35'0 0.0
2018-Feb-18 19:00N 39°13' W 076°35'0 0.0
2018-Feb-18 17:22N 39°13' W 076°35'0 0.0
2018-Feb-18 16:20N 39°13' W 076°35'0 0.0
2018-Feb-18 15:56N 39°13' W 076°35'0 0.0
2018-Feb-18 15:26N 39°13' W 076°35'0 0.0
2018-Feb-18 14:57N 39°13' W 076°35'0 0.0
2018-Feb-18 14:29N 39°13' W 076°35'0 0.0
2018-Feb-18 14:00N 39°13' W 076°35'0 0.0
2018-Feb-18 13:30N 39°13' W 076°35'0 0.0
2018-Feb-18 13:00N 39°13' W 076°35'0 0.0
2018-Feb-18 12:30N 39°13' W 076°35'0 0.0
2018-Feb-18 11:05N 39°13' W 076°35'0 0.1
2018-Feb-18 10:59N 39°13' W 076°35'0 0.0
2018-Feb-18 10:30N 39°13' W 076°35'0 0.0
2018-Feb-18 10:00N 39°13' W 076°35'0 0.0
2018-Feb-18 09:30N 39°13' W 076°35'0 0.0
2018-Feb-18 09:00N 39°13' W 076°35'0 0.0
2018-Feb-18 08:22N 39°13' W 076°35'0 0.0
2018-Feb-18 03:09N 39°13' W 076°35'0 0.0
2018-Feb-18 03:00N 39°13' W 076°35'0 0.0
2018-Feb-18 02:26N 39°13' W 076°35'0 0.0
2018-Feb-18 01:54N 39°13' W 076°35'0 0.0
2018-Feb-18 01:30N 39°13' W 076°35'0 0.0
2018-Feb-18 00:38N 39°13' W 076°35'0 0.0
2018-Feb-18 00:29N 39°13' W 076°35'0 0.0
2018-Feb-17 23:59N 39°13' W 076°35'0 0.5
2018-Feb-17 23:30N 39°13' W 076°34'2 2.7
2018-Feb-17 22:56N 39°13' W 076°32'0 0.0
2018-Feb-17 22:18N 39°13' W 076°32'0 0.0
2018-Feb-17 21:59N 39°13' W 076°32'0 0.0
2018-Feb-17 20:30N 39°13' W 076°32'0 0.0
2018-Feb-17 19:59N 39°13' W 076°32'0 0.0
2018-Feb-17 19:30N 39°13' W 076°32'0 0.0
2018-Feb-17 19:00N 39°13' W 076°32'0 0.0
2018-Feb-17 18:30N 39°13' W 076°32'0 0.0
2018-Feb-17 18:00N 39°13' W 076°32'0 0.0
2018-Feb-17 17:30N 39°13' W 076°32'0 0.0
2018-Feb-17 17:00N 39°13' W 076°32'0 0.0
2018-Feb-17 16:30N 39°13' W 076°32'0 0.0
2018-Feb-17 16:00N 39°13' W 076°32'0 0.0
2018-Feb-17 15:30N 39°13' W 076°32'0 0.0
2018-Feb-17 15:00N 39°13' W 076°32'0 0.0
2018-Feb-17 14:30N 39°13' W 076°32'0 0.0
2018-Feb-17 14:00N 39°13' W 076°32'0 0.0
2018-Feb-17 13:30N 39°13' W 076°32'0 0.0
2018-Feb-17 13:00N 39°13' W 076°32'0 0.0
2018-Feb-17 12:30N 39°13' W 076°32'0 0.0
2018-Feb-17 12:00N 39°13' W 076°32'0 0.0
2018-Feb-17 11:23N 39°13' W 076°32'0 0.0
2018-Feb-17 09:59N 39°13' W 076°32'0 0.0
2018-Feb-17 09:30N 39°13' W 076°32'0 0.0
2018-Feb-17 09:00N 39°13' W 076°32'0 0.0
2018-Feb-17 08:30N 39°13' W 076°32'0 0.0
2018-Feb-17 08:00N 39°13' W 076°32'0 0.0
2018-Feb-17 07:30N 39°13' W 076°32'0 0.0
2018-Feb-17 07:00N 39°13' W 076°32'0 0.0
2018-Feb-17 06:30N 39°13' W 076°32'0 0.0
2018-Feb-17 06:00N 39°13' W 076°32'0 0.0
2018-Feb-17 01:14N 39°13' W 076°32'0 0.0
2018-Feb-17 00:57N 39°13' W 076°32'0 0.0
2018-Feb-16 23:21N 39°13' W 076°32'0 0.0
2018-Feb-16 22:58N 39°13' W 076°32'0 0.0
2018-Feb-16 22:25N 39°13' W 076°32'0 0.0
2018-Feb-16 22:00N 39°13' W 076°32'0 0.0
2018-Feb-16 21:30N 39°13' W 076°32'0 0.0
2018-Feb-16 20:55N 39°13' W 076°32'0 0.0
2018-Feb-16 20:30N 39°13' W 076°32'2 3.6
2018-Feb-16 20:00N 39°13' W 076°35'2 3.3
2018-Feb-16 19:30N 39°13' W 076°33'3 5.3
2018-Feb-16 19:00N 39°11' W 076°31'0 0.6
2018-Feb-16 18:30N 39°11' W 076°31'3 5.1
2018-Feb-16 17:59N 39°13' W 076°33'2 2.9
2018-Feb-16 17:27N 39°13' W 076°35'0 0.1
2018-Feb-16 17:00N 39°13' W 076°35'2 0.9
2018-Feb-16 15:07N 39°13' W 076°32'0 0.0
2018-Feb-16 14:57N 39°13' W 076°32'0 0.0
2018-Feb-16 14:29N 39°13' W 076°32'0 0.0
2018-Feb-16 13:57N 39°13' W 076°32'0 0.0
2018-Feb-16 13:30N 39°13' W 076°32'0 0.0
2018-Feb-16 13:00N 39°13' W 076°32'0 0.0
2018-Feb-16 12:30N 39°13' W 076°32'0 0.0
2018-Feb-16 11:59N 39°13' W 076°32'0 0.0
2018-Feb-16 11:29N 39°13' W 076°32'0 0.0
2018-Feb-16 10:51N 39°13' W 076°32'0 0.0
2018-Feb-16 10:29N 39°13' W 076°32'0 0.0
2018-Feb-16 10:00N 39°13' W 076°32'0 0.0
2018-Feb-16 09:28N 39°13' W 076°32'0 0.0
2018-Feb-16 09:00N 39°13' W 076°32'0 0.0
2018-Feb-16 08:29N 39°13' W 076°32'0 0.0
2018-Feb-16 07:55N 39°13' W 076°32'0 0.0
2018-Feb-16 07:30N 39°13' W 076°32'0 0.0
2018-Feb-16 07:00N 39°13' W 076°32'0 0.0
2018-Feb-16 06:29N 39°13' W 076°32'0 0.0
2018-Feb-16 05:47N 39°13' W 076°32'0 0.0
2018-Feb-16 05:30N 39°13' W 076°32'0 0.0
2018-Feb-16 05:00N 39°13' W 076°32'0 0.0
2018-Feb-16 04:30N 39°13' W 076°32'0 0.0
2018-Feb-16 04:00N 39°13' W 076°32'0 0.0
2018-Feb-16 03:30N 39°13' W 076°32'0 0.0
2018-Feb-16 03:00N 39°13' W 076°32'0 0.0
2018-Feb-16 02:30N 39°13' W 076°32'0 0.0
2018-Feb-16 02:00N 39°13' W 076°32'0 0.0
2018-Feb-16 01:30N 39°13' W 076°32'2 3.8
2018-Feb-16 01:00N 39°13' W 076°35'1 1.7
2018-Feb-16 00:29N 39°13' W 076°34'3 6.0
2018-Feb-15 23:59N 39°11' W 076°31'0 0.5
2018-Feb-15 23:30N 39°11' W 076°31'0 0.2
2018-Feb-15 23:00N 39°11' W 076°31'2 4.2
2018-Feb-15 22:30N 39°13' W 076°32'0 0.0
2018-Feb-15 22:00N 39°13' W 076°32'0 0.0
2018-Feb-15 21:30N 39°13' W 076°32'0 0.0
2018-Feb-15 21:00N 39°13' W 076°32'0 0.0
2018-Feb-15 20:30N 39°13' W 076°32'0 0.0
2018-Feb-15 20:00N 39°13' W 076°32'0 0.0
2018-Feb-15 19:30N 39°13' W 076°32'1 2.6
2018-Feb-15 19:00N 39°12' W 076°31'1 2.2
2018-Feb-15 18:30N 39°11' W 076°31'2 4.3
2018-Feb-15 18:00N 39°13' W 076°32'2 4.2
2018-Feb-15 17:29N 39°13' W 076°35'0 0.0
2018-Feb-15 16:57N 39°13' W 076°35'2 3.9
2018-Feb-15 16:29N 39°13' W 076°32'0 0.0
2018-Feb-15 16:00N 39°13' W 076°32'0 0.0
2018-Feb-15 15:30N 39°13' W 076°32'0 0.0
2018-Feb-15 15:00N 39°13' W 076°32'0 0.0
2018-Feb-15 14:30N 39°13' W 076°32'0 0.0
2018-Feb-15 13:59N 39°13' W 076°32'0 0.0
2018-Feb-15 13:30N 39°13' W 076°32'0 0.0
2018-Feb-15 13:00N 39°13' W 076°32'0 0.0
2018-Feb-15 12:30N 39°13' W 076°32'0 0.0
2018-Feb-15 12:00N 39°13' W 076°32'0 0.0
2018-Feb-15 11:30N 39°13' W 076°32'0 0.0
2018-Feb-15 11:00N 39°13' W 076°32'0 0.0
2018-Feb-15 10:29N 39°13' W 076°32'0 0.0
2018-Feb-15 10:00N 39°13' W 076°32'0 0.0
2018-Feb-15 09:30N 39°13' W 076°32'0 0.0
2018-Feb-15 09:00N 39°13' W 076°32'0 0.0
2018-Feb-15 08:30N 39°13' W 076°32'2 3.6
2018-Feb-15 08:00N 39°13' W 076°35'2 3.9
2018-Feb-15 07:30N 39°13' W 076°32'3 4.7
2018-Feb-15 06:58N 39°11' W 076°31'0 0.4
2018-Feb-15 06:30N 39°11' W 076°31'0 0.1
2018-Feb-15 05:07N 39°11' W 076°31'1 6.0
2018-Feb-15 05:00N 39°12' W 076°31'4 7.2
2018-Feb-15 04:30N 39°13' W 076°35'2 3.3
2018-Feb-15 04:00N 39°13' W 076°33'3 5.2
2018-Feb-15 03:29N 39°11' W 076°31'0 1.0
2018-Feb-15 03:00N 39°11' W 076°31'2 4.9
2018-Feb-15 02:30N 39°13' W 076°32'2 3.7
2018-Feb-15 02:00N 39°13' W 076°35'4 7.5
2018-Feb-15 01:30N 39°11' W 076°31'1 1.3
2018-Feb-15 01:00N 39°11' W 076°31'0 0.5
2018-Feb-15 00:30N 39°11' W 076°31'2 3.5
2018-Feb-15 00:00N 39°13' W 076°31'3 5.2
2018-Feb-14 23:30N 39°13' W 076°35'1 3.0
2018-Feb-14 23:00N 39°13' W 076°33'1 1.1
2018-Feb-14 22:30N 39°13' W 076°32'0 0.0
2018-Feb-14 22:00N 39°13' W 076°32'0 0.0
2018-Feb-14 21:20N 39°13' W 076°32'0 0.0
2018-Feb-14 21:00N 39°13' W 076°32'0 0.0
2018-Feb-14 20:27N 39°13' W 076°32'0 0.0
2018-Feb-14 12:51N 39°13' W 076°32'0 0.0
2018-Feb-14 12:30N 39°13' W 076°32'0 0.0
2018-Feb-14 12:00N 39°13' W 076°32'0 0.0
2018-Feb-14 11:27N 39°13' W 076°32'0 0.0
2018-Feb-14 11:00N 39°13' W 076°32'0 0.0
2018-Feb-14 10:30N 39°13' W 076°32'0 0.0
2018-Feb-14 09:53N 39°13' W 076°32'0 0.0
2018-Feb-14 09:30N 39°13' W 076°32'0 0.0
2018-Feb-14 08:58N 39°13' W 076°32'0 0.0
2018-Feb-14 08:30N 39°13' W 076°32'0 0.0
2018-Feb-14 07:59N 39°13' W 076°32'0 0.0
2018-Feb-14 07:29N 39°13' W 076°32'0 0.0
2018-Feb-14 06:56N 39°13' W 076°32'0 0.0
2018-Feb-14 06:30N 39°13' W 076°32'0 0.0
2018-Feb-14 05:59N 39°13' W 076°32'0 0.0
2018-Feb-14 05:29N 39°13' W 076°32'0 0.0
2018-Feb-14 04:55N 39°13' W 076°32'0 0.0
2018-Feb-14 04:25N 39°13' W 076°32'0 0.0
2018-Feb-14 04:00N 39°13' W 076°32'  
Track history (hours):
 
Tides and Currents Weather Stations Pressure Air Temp Water Temp Dewpoint Dewpoint Depression Visibility Wind Speed Wind Dir Waves Ship Positions

Ms Janet

Owner: Ms Janet, LLC., Norfolk, VA. More information available from US FCC via Universal Licensing System and Coast Guard Vessel Documentation Center.

Last reported at 2018-Feb-24 04:00 UTC. Time now 2018-Feb-24 04:28 UTC.
Position N 39°13' W 076°32'.

Length 29 m; draft 4 m.

Type: Tug. MMSI: 367706270.

Date/timePositionNaut miles runAvg speedWind from/ knotsBaromVisibWave heightAir tempDewpointWater temp
2018-Feb-24 04:00N 39°13' W 076°32'0 0.0
2018-Feb-24 03:14N 39°13' W 076°32'0 0.0
2018-Feb-24 03:00N 39°13' W 076°32'0 0.0
2018-Feb-24 01:31N 39°13' W 076°32'0 0.0
2018-Feb-24 01:19N 39°13' W 076°32'0 0.0
2018-Feb-24 00:56N 39°13' W 076°32'0 0.0
2018-Feb-24 00:22N 39°13' W 076°32'0 0.0
2018-Feb-24 00:00N 39°13' W 076°32'0 0.0
2018-Feb-23 23:30N 39°13' W 076°32'0 0.0
2018-Feb-23 23:00N 39°13' W 076°32'0 0.0
2018-Feb-23 22:30N 39°13' W 076°32'0 0.0
2018-Feb-23 21:58N 39°13' W 076°32'0 0.0
2018-Feb-23 21:30N 39°13' W 076°32'0 0.0
2018-Feb-23 21:00N 39°13' W 076°32'0 0.0
2018-Feb-23 20:30N 39°13' W 076°32'0 0.0
2018-Feb-23 19:58N 39°13' W 076°32'0 0.0
2018-Feb-23 19:30N 39°13' W 076°32'0 0.0
2018-Feb-23 19:00N 39°13' W 076°32'0 0.0
2018-Feb-23 18:30N 39°13' W 076°32'2 3.4
2018-Feb-23 17:56N 39°13' W 076°35'0 0.0
2018-Feb-23 17:30N 39°13' W 076°35'0 0.0
2018-Feb-23 16:52N 39°13' W 076°35'0 0.0
2018-Feb-23 16:30N 39°13' W 076°35'0 0.1
2018-Feb-23 15:42N 39°13' W 076°35'1 3.3
2018-Feb-23 15:29N 39°13' W 076°34'3 6.3
2018-Feb-23 14:59N 39°11' W 076°31'0 0.7
2018-Feb-23 14:24N 39°11' W 076°31'1 3.6
2018-Feb-23 14:00N 39°12' W 076°31'3 4.1
2018-Feb-23 13:19N 39°13' W 076°35'1 2.9
2018-Feb-23 13:00N 39°13' W 076°33'3 5.1
2018-Feb-23 12:27N 39°12' W 076°31'1 1.8
2018-Feb-23 11:58N 39°11' W 076°31'2 4.4
2018-Feb-23 11:30N 39°13' W 076°32'0 1.0
2018-Feb-23 11:00N 39°13' W 076°32'0 0.0
2018-Feb-23 10:30N 39°13' W 076°32'0 0.0
2018-Feb-23 10:00N 39°13' W 076°32'0 0.0
2018-Feb-23 09:30N 39°13' W 076°32'0 0.0
2018-Feb-23 09:00N 39°13' W 076°32'0 0.0
2018-Feb-23 08:30N 39°13' W 076°32'0 0.0
2018-Feb-23 08:00N 39°13' W 076°32'0 0.0
2018-Feb-23 07:30N 39°13' W 076°32'0 0.0
2018-Feb-23 07:00N 39°13' W 076°32'0 0.0
2018-Feb-23 06:30N 39°13' W 076°32'0 0.0
2018-Feb-23 06:00N 39°13' W 076°32'0 0.0
2018-Feb-23 05:30N 39°13' W 076°32'0 0.0
2018-Feb-23 05:00N 39°13' W 076°32'0 0.0
2018-Feb-23 04:30N 39°13' W 076°32'0 0.0
2018-Feb-23 04:00N 39°13' W 076°32'0 0.0
2018-Feb-23 03:30N 39°13' W 076°32'0 0.0
2018-Feb-23 03:00N 39°13' W 076°32'0 0.0
2018-Feb-23 02:30N 39°13' W 076°32'0 0.0
2018-Feb-23 02:00N 39°13' W 076°32'0 0.0
2018-Feb-23 01:30N 39°13' W 076°32'0 0.0
2018-Feb-23 01:00N 39°13' W 076°32'0 0.0
2018-Feb-23 00:30N 39°13' W 076°32'0 0.0
2018-Feb-22 23:56N 39°13' W 076°32'0 0.0
2018-Feb-22 23:29N 39°13' W 076°32'0 0.0
2018-Feb-22 21:25N 39°13' W 076°32'2 4.8
2018-Feb-22 20:59N 39°11' W 076°31'0 0.0
2018-Feb-22 20:30N 39°11' W 076°31'0 0.5
2018-Feb-22 20:00N 39°11' W 076°31'0 0.0
2018-Feb-22 19:30N 39°11' W 076°31'0 0.0
2018-Feb-22 18:58N 39°11' W 076°31'1 1.1
2018-Feb-22 18:30N 39°11' W 076°31'3 5.5
2018-Feb-22 18:00N 39°13' W 076°33'1 1.7
2018-Feb-22 17:29N 39°13' W 076°34'2 3.3
2018-Feb-22 17:00N 39°13' W 076°32'0 0.0
2018-Feb-22 16:30N 39°13' W 076°32'0 0.0
2018-Feb-22 16:00N 39°13' W 076°32'0 0.0
2018-Feb-22 15:30N 39°13' W 076°32'0 0.0
2018-Feb-22 15:00N 39°13' W 076°32'0 0.0
2018-Feb-22 14:30N 39°13' W 076°32'0 0.2
2018-Feb-22 14:00N 39°13' W 076°32'2 4.2
2018-Feb-22 13:30N 39°11' W 076°31'0 0.6
2018-Feb-22 13:00N 39°11' W 076°31'0 0.0
2018-Feb-22 12:28N 39°11' W 076°31'0 0.2
2018-Feb-22 12:00N 39°11' W 076°31'0 0.6
2018-Feb-22 11:30N 39°11' W 076°31'1 3.0
2018-Feb-22 11:00N 39°12' W 076°31'3 5.7
2018-Feb-22 10:30N 39°13' W 076°35'0 0.1
2018-Feb-22 10:00N 39°13' W 076°35'0 0.2
2018-Feb-22 09:23N 39°13' W 076°35'0 0.0
2018-Feb-22 08:59N 39°13' W 076°35'0 0.0
2018-Feb-22 08:30N 39°13' W 076°35'0 0.3
2018-Feb-22 08:00N 39°13' W 076°35'2 0.8
2018-Feb-22 05:35N 39°13' W 076°32'0 0.0
2018-Feb-22 05:30N 39°13' W 076°32'0 0.0
2018-Feb-22 04:59N 39°13' W 076°32'0 0.0
2018-Feb-22 04:28N 39°13' W 076°32'0 0.0
2018-Feb-22 04:00N 39°13' W 076°32'0 0.0
2018-Feb-22 03:29N 39°13' W 076°32'0 0.0
2018-Feb-22 03:00N 39°13' W 076°32'0 0.0
2018-Feb-22 02:27N 39°13' W 076°32'0 0.0
2018-Feb-22 02:00N 39°13' W 076°32'0 0.0
2018-Feb-22 00:45N 39°13' W 076°32'0 0.0
2018-Feb-22 00:18N 39°13' W 076°32'0 0.0
2018-Feb-22 00:00N 39°13' W 076°32'0 0.0
2018-Feb-21 23:28N 39°13' W 076°32'0 0.0
2018-Feb-21 23:00N 39°13' W 076°32'0 0.0
2018-Feb-21 22:30N 39°13' W 076°32'0 0.0
2018-Feb-21 21:49N 39°13' W 076°32'0 0.0
2018-Feb-21 21:26N 39°13' W 076°32'0 0.0
2018-Feb-21 20:58N 39°13' W 076°32'0 0.0
2018-Feb-21 20:30N 39°13' W 076°32'0 0.0
2018-Feb-21 20:00N 39°13' W 076°32'0 0.0
2018-Feb-21 19:30N 39°13' W 076°32'0 0.0
2018-Feb-21 18:32N 39°13' W 076°32'0 0.0
2018-Feb-21 18:30N 39°13' W 076°32'0 0.0
2018-Feb-21 17:55N 39°13' W 076°32'0 0.0
2018-Feb-21 17:05N 39°13' W 076°32'0 0.0
2018-Feb-21 16:52N 39°13' W 076°32'0 0.0
2018-Feb-21 15:30N 39°13' W 076°32'0 0.0
2018-Feb-21 14:51N 39°13' W 076°32'0 0.0
2018-Feb-21 14:29N 39°13' W 076°32'0 0.0
2018-Feb-21 14:00N 39°13' W 076°32'0 0.0
2018-Feb-21 13:29N 39°13' W 076°32'1 1.3
2018-Feb-21 13:00N 39°13' W 076°33'2 3.4
2018-Feb-21 12:30N 39°13' W 076°35'0 0.0
2018-Feb-21 12:00N 39°13' W 076°35'0 0.0
2018-Feb-21 11:30N 39°13' W 076°35'0 0.0
2018-Feb-21 11:00N 39°13' W 076°35'0 0.0
2018-Feb-21 10:30N 39°13' W 076°35'0 0.0
2018-Feb-21 10:00N 39°13' W 076°35'0 0.0
2018-Feb-21 09:30N 39°13' W 076°35'0 0.0
2018-Feb-21 09:00N 39°13' W 076°35'0 0.0
2018-Feb-21 08:30N 39°13' W 076°35'0 0.0
2018-Feb-21 08:00N 39°13' W 076°35'0 0.0
2018-Feb-21 07:30N 39°13' W 076°35'0 0.0
2018-Feb-21 07:00N 39°13' W 076°35'0 0.0
2018-Feb-21 06:30N 39°13' W 076°35'0 0.0
2018-Feb-21 06:00N 39°13' W 076°35'0 0.0
2018-Feb-21 05:30N 39°13' W 076°35'0 0.0
2018-Feb-21 05:00N 39°13' W 076°35'0 0.0
2018-Feb-21 04:30N 39°13' W 076°35'0 0.0
2018-Feb-21 04:00N 39°13' W 076°35'1 1.9
2018-Feb-21 03:30N 39°13' W 076°34'1 2.2
2018-Feb-21 02:58N 39°13' W 076°32'0 0.0
2018-Feb-21 02:30N 39°13' W 076°32'2 3.4
2018-Feb-21 02:00N 39°13' W 076°35'1 1.3
2018-Feb-21 01:30N 39°13' W 076°34'3 6.2
2018-Feb-21 01:00N 39°11' W 076°31'0 0.3
2018-Feb-21 00:30N 39°11' W 076°31'0 0.2
2018-Feb-20 23:58N 39°11' W 076°31'2 3.9
2018-Feb-20 23:30N 39°13' W 076°32'1 1.5
2018-Feb-20 23:00N 39°13' W 076°32'0 0.0
2018-Feb-20 22:28N 39°13' W 076°32'0 0.0
2018-Feb-20 22:00N 39°13' W 076°32'0 0.0
2018-Feb-20 21:30N 39°13' W 076°32'0 0.0
2018-Feb-20 20:59N 39°13' W 076°32'0 0.0
2018-Feb-20 20:28N 39°13' W 076°32'0 0.0
2018-Feb-20 19:52N 39°13' W 076°32'0 0.0
2018-Feb-20 19:30N 39°13' W 076°32'0 0.0
2018-Feb-20 19:00N 39°13' W 076°32'0 0.0
2018-Feb-20 18:29N 39°13' W 076°32'0 0.0
2018-Feb-20 17:59N 39°13' W 076°32'0 0.0
2018-Feb-20 17:30N 39°13' W 076°32'0 0.0
2018-Feb-20 17:00N 39°13' W 076°32'0 0.0
2018-Feb-20 16:30N 39°13' W 076°32'0 0.0
2018-Feb-20 16:00N 39°13' W 076°32'0 0.0
2018-Feb-20 15:30N 39°13' W 076°32'0 0.0
2018-Feb-20 15:00N 39°13' W 076°32'0 0.0
2018-Feb-20 14:30N 39°13' W 076°32'0 0.0
2018-Feb-20 14:00N 39°13' W 076°32'0 0.0
2018-Feb-20 13:30N 39°13' W 076°32'0 0.0
2018-Feb-20 13:00N 39°13' W 076°32'0 0.0
2018-Feb-20 12:30N 39°13' W 076°32'0 0.0
2018-Feb-20 12:00N 39°13' W 076°32'0 0.0
2018-Feb-20 11:30N 39°13' W 076°32'0 0.0
2018-Feb-20 10:58N 39°13' W 076°32'0 0.0
2018-Feb-20 10:30N 39°13' W 076°32'0 0.0
2018-Feb-20 10:00N 39°13' W 076°32'0 0.0
2018-Feb-20 09:30N 39°13' W 076°32'0 0.0
2018-Feb-20 09:00N 39°13' W 076°32'0 0.0
2018-Feb-20 08:30N 39°13' W 076°32'0 0.0
2018-Feb-20 07:58N 39°13' W 076°32'0 0.0
2018-Feb-20 07:29N 39°13' W 076°32'0 0.0
2018-Feb-20 07:00N 39°13' W 076°32'0 0.0
2018-Feb-20 06:30N 39°13' W 076°32'0 0.0
2018-Feb-20 04:51N 39°13' W 076°32'0 0.0
2018-Feb-20 04:30N 39°13' W 076°32'0 0.0
2018-Feb-20 03:57N 39°13' W 076°32'0 0.0
2018-Feb-19 19:50N 39°13' W 076°32'0 0.0
2018-Feb-19 19:30N 39°13' W 076°32'0 0.0
2018-Feb-19 18:18N 39°13' W 076°32'0 0.0
2018-Feb-19 18:00N 39°13' W 076°32'0 0.0
2018-Feb-19 17:16N 39°13' W 076°32'0 0.0
2018-Feb-19 17:00N 39°13' W 076°32'0 0.0
2018-Feb-19 16:26N 39°13' W 076°32'0 0.0
2018-Feb-19 16:00N 39°13' W 076°32'0 0.0
2018-Feb-19 15:30N 39°13' W 076°32'0 0.0
2018-Feb-19 15:00N 39°13' W 076°32'0 0.0
2018-Feb-19 14:30N 39°13' W 076°32'0 0.0
2018-Feb-19 14:01N 39°13' W 076°32'0 0.0
2018-Feb-19 13:30N 39°13' W 076°32'0 0.0
2018-Feb-19 13:00N 39°13' W 076°32'0 0.0
2018-Feb-19 12:30N 39°13' W 076°32'0 0.1
2018-Feb-19 12:00N 39°13' W 076°32'0 0.1
2018-Feb-19 11:30N 39°13' W 076°32'0 0.0
2018-Feb-19 11:00N 39°13' W 076°32'0 0.0
2018-Feb-19 10:30N 39°13' W 076°32'0 0.0
2018-Feb-19 10:00N 39°13' W 076°32'0 0.0
2018-Feb-19 09:30N 39°13' W 076°32'0 0.0
2018-Feb-19 08:59N 39°13' W 076°32'0 0.0
2018-Feb-19 08:30N 39°13' W 076°32'0 0.0
2018-Feb-19 07:56N 39°13' W 076°32'0 0.2
2018-Feb-19 07:30N 39°13' W 076°32'2 3.5
2018-Feb-19 07:00N 39°13' W 076°35'0 0.2
2018-Feb-19 06:28N 39°13' W 076°35'0 0.1
2018-Feb-19 06:00N 39°13' W 076°35'0 0.4
2018-Feb-19 05:29N 39°14' W 076°35'3 6.9
2018-Feb-19 05:00N 39°12' W 076°31'1 1.5
2018-Feb-19 04:30N 39°11' W 076°31'3 5.3
2018-Feb-19 04:00N 39°13' W 076°33'1 2.6
2018-Feb-19 03:29N 39°13' W 076°35'0 0.0
2018-Feb-19 03:00N 39°13' W 076°35'0 0.0
2018-Feb-19 02:28N 39°13' W 076°35'2 4.0
2018-Feb-19 02:00N 39°13' W 076°32'3 5.0
2018-Feb-19 01:30N 39°11' W 076°31'2 4.0
2018-Feb-19 01:00N 39°13' W 076°32'2 4.0
2018-Feb-19 00:22N 39°13' W 076°35'0 0.3
2018-Feb-19 00:00N 39°13' W 076°35'0 0.0
2018-Feb-18 23:30N 39°13' W 076°35'0 0.0
2018-Feb-18 23:00N 39°13' W 076°35'2 3.7
2018-Feb-18 22:30N 39°13' W 076°32'2 3.8
2018-Feb-18 22:00N 39°13' W 076°35'0 0.0
2018-Feb-18 21:30N 39°13' W 076°35'0 0.0
2018-Feb-18 21:00N 39°13' W 076°35'0 0.0
2018-Feb-18 20:23N 39°13' W 076°35'0 0.0
2018-Feb-18 19:38N 39°13' W 076°35'0 0.0
2018-Feb-18 19:20N 39°13' W 076°35'0 0.0
2018-Feb-18 19:00N 39°13' W 076°35'0 0.0
2018-Feb-18 17:22N 39°13' W 076°35'0 0.0
2018-Feb-18 16:20N 39°13' W 076°35'0 0.0
2018-Feb-18 15:56N 39°13' W 076°35'0 0.0
2018-Feb-18 15:26N 39°13' W 076°35'0 0.0
2018-Feb-18 14:57N 39°13' W 076°35'0 0.0
2018-Feb-18 14:29N 39°13' W 076°35'0 0.0
2018-Feb-18 14:00N 39°13' W 076°35'0 0.0
2018-Feb-18 13:30N 39°13' W 076°35'0 0.0
2018-Feb-18 13:00N 39°13' W 076°35'0 0.0
2018-Feb-18 12:30N 39°13' W 076°35'0 0.0
2018-Feb-18 11:05N 39°13' W 076°35'0 0.1
2018-Feb-18 10:59N 39°13' W 076°35'0 0.0
2018-Feb-18 10:30N 39°13' W 076°35'0 0.0
2018-Feb-18 10:00N 39°13' W 076°35'0 0.0
2018-Feb-18 09:30N 39°13' W 076°35'0 0.0
2018-Feb-18 09:00N 39°13' W 076°35'0 0.0
2018-Feb-18 08:22N 39°13' W 076°35'0 0.0
2018-Feb-18 03:09N 39°13' W 076°35'0 0.0
2018-Feb-18 03:00N 39°13' W 076°35'0 0.0
2018-Feb-18 02:26N 39°13' W 076°35'0 0.0
2018-Feb-18 01:54N 39°13' W 076°35'0 0.0
2018-Feb-18 01:30N 39°13' W 076°35'0 0.0
2018-Feb-18 00:38N 39°13' W 076°35'0 0.0
2018-Feb-18 00:29N 39°13' W 076°35'0 0.0
2018-Feb-17 23:59N 39°13' W 076°35'0 0.5
2018-Feb-17 23:30N 39°13' W 076°34'2 2.7
2018-Feb-17 22:56N 39°13' W 076°32'0 0.0
2018-Feb-17 22:18N 39°13' W 076°32'0 0.0
2018-Feb-17 21:59N 39°13' W 076°32'0 0.0
2018-Feb-17 20:30N 39°13' W 076°32'0 0.0
2018-Feb-17 19:59N 39°13' W 076°32'0 0.0
2018-Feb-17 19:30N 39°13' W 076°32'0 0.0
2018-Feb-17 19:00N 39°13' W 076°32'0 0.0
2018-Feb-17 18:30N 39°13' W 076°32'0 0.0
2018-Feb-17 18:00N 39°13' W 076°32'0 0.0
2018-Feb-17 17:30N 39°13' W 076°32'0 0.0
2018-Feb-17 17:00N 39°13' W 076°32'0 0.0
2018-Feb-17 16:30N 39°13' W 076°32'0 0.0
2018-Feb-17 16:00N 39°13' W 076°32'0 0.0
2018-Feb-17 15:30N 39°13' W 076°32'0 0.0
2018-Feb-17 15:00N 39°13' W 076°32'0 0.0
2018-Feb-17 14:30N 39°13' W 076°32'0 0.0
2018-Feb-17 14:00N 39°13' W 076°32'0 0.0
2018-Feb-17 13:30N 39°13' W 076°32'0 0.0
2018-Feb-17 13:00N 39°13' W 076°32'0 0.0
2018-Feb-17 12:30N 39°13' W 076°32'0 0.0
2018-Feb-17 12:00N 39°13' W 076°32'0 0.0
2018-Feb-17 11:23N 39°13' W 076°32'0 0.0
2018-Feb-17 09:59N 39°13' W 076°32'0 0.0
2018-Feb-17 09:30N 39°13' W 076°32'0 0.0
2018-Feb-17 09:00N 39°13' W 076°32'0 0.0
2018-Feb-17 08:30N 39°13' W 076°32'0 0.0
2018-Feb-17 08:00N 39°13' W 076°32'0 0.0
2018-Feb-17 07:30N 39°13' W 076°32'0 0.0
2018-Feb-17 07:00N 39°13' W 076°32'0 0.0
2018-Feb-17 06:30N 39°13' W 076°32'0 0.0
2018-Feb-17 06:00N 39°13' W 076°32'0 0.0
2018-Feb-17 01:14N 39°13' W 076°32'0 0.0
2018-Feb-17 00:57N 39°13' W 076°32'0 0.0
2018-Feb-16 23:21N 39°13' W 076°32'0 0.0
2018-Feb-16 22:58N 39°13' W 076°32'0 0.0
2018-Feb-16 22:25N 39°13' W 076°32'0 0.0
2018-Feb-16 22:00N 39°13' W 076°32'0 0.0
2018-Feb-16 21:30N 39°13' W 076°32'0 0.0
2018-Feb-16 20:55N 39°13' W 076°32'0 0.0
2018-Feb-16 20:30N 39°13' W 076°32'2 3.6
2018-Feb-16 20:00N 39°13' W 076°35'2 3.3
2018-Feb-16 19:30N 39°13' W 076°33'3 5.3
2018-Feb-16 19:00N 39°11' W 076°31'0 0.6
2018-Feb-16 18:30N 39°11' W 076°31'3 5.1
2018-Feb-16 17:59N 39°13' W 076°33'2 2.9
2018-Feb-16 17:27N 39°13' W 076°35'0 0.1
2018-Feb-16 17:00N 39°13' W 076°35'2 0.9
2018-Feb-16 15:07N 39°13' W 076°32'0 0.0
2018-Feb-16 14:57N 39°13' W 076°32'0 0.0
2018-Feb-16 14:29N 39°13' W 076°32'0 0.0
2018-Feb-16 13:57N 39°13' W 076°32'0 0.0
2018-Feb-16 13:30N 39°13' W 076°32'0 0.0
2018-Feb-16 13:00N 39°13' W 076°32'0 0.0
2018-Feb-16 12:30N 39°13' W 076°32'0 0.0
2018-Feb-16 11:59N 39°13' W 076°32'0 0.0
2018-Feb-16 11:29N 39°13' W 076°32'0 0.0
2018-Feb-16 10:51N 39°13' W 076°32'0 0.0
2018-Feb-16 10:29N 39°13' W 076°32'0 0.0
2018-Feb-16 10:00N 39°13' W 076°32'0 0.0
2018-Feb-16 09:28N 39°13' W 076°32'0 0.0
2018-Feb-16 09:00N 39°13' W 076°32'0 0.0
2018-Feb-16 08:29N 39°13' W 076°32'0 0.0
2018-Feb-16 07:55N 39°13' W 076°32'0 0.0
2018-Feb-16 07:30N 39°13' W 076°32'0 0.0
2018-Feb-16 07:00N 39°13' W 076°32'0 0.0
2018-Feb-16 06:29N 39°13' W 076°32'0 0.0
2018-Feb-16 05:47N 39°13' W 076°32'0 0.0
2018-Feb-16 05:30N 39°13' W 076°32'0 0.0
2018-Feb-16 05:00N 39°13' W 076°32'0 0.0
2018-Feb-16 04:30N 39°13' W 076°32'0 0.0
2018-Feb-16 04:00N 39°13' W 076°32'0 0.0
2018-Feb-16 03:30N 39°13' W 076°32'0 0.0
2018-Feb-16 03:00N 39°13' W 076°32'0 0.0
2018-Feb-16 02:30N 39°13' W 076°32'0 0.0
2018-Feb-16 02:00N 39°13' W 076°32'0 0.0
2018-Feb-16 01:30N 39°13' W 076°32'2 3.8
2018-Feb-16 01:00N 39°13' W 076°35'1 1.7
2018-Feb-16 00:29N 39°13' W 076°34'3 6.0
2018-Feb-15 23:59N 39°11' W 076°31'0 0.5
2018-Feb-15 23:30N 39°11' W 076°31'0 0.2
2018-Feb-15 23:00N 39°11' W 076°31'2 4.2
2018-Feb-15 22:30N 39°13' W 076°32'0 0.0
2018-Feb-15 22:00N 39°13' W 076°32'0 0.0
2018-Feb-15 21:30N 39°13' W 076°32'0 0.0
2018-Feb-15 21:00N 39°13' W 076°32'0 0.0
2018-Feb-15 20:30N 39°13' W 076°32'0 0.0
2018-Feb-15 20:00N 39°13' W 076°32'0 0.0
2018-Feb-15 19:30N 39°13' W 076°32'1 2.6
2018-Feb-15 19:00N 39°12' W 076°31'1 2.2
2018-Feb-15 18:30N 39°11' W 076°31'2 4.3
2018-Feb-15 18:00N 39°13' W 076°32'2 4.2
2018-Feb-15 17:29N 39°13' W 076°35'0 0.0
2018-Feb-15 16:57N 39°13' W 076°35'2 3.9
2018-Feb-15 16:29N 39°13' W 076°32'0 0.0
2018-Feb-15 16:00N 39°13' W 076°32'0 0.0
2018-Feb-15 15:30N 39°13' W 076°32'0 0.0
2018-Feb-15 15:00N 39°13' W 076°32'0 0.0
2018-Feb-15 14:30N 39°13' W 076°32'0 0.0
2018-Feb-15 13:59N 39°13' W 076°32'0 0.0
2018-Feb-15 13:30N 39°13' W 076°32'0 0.0
2018-Feb-15 13:00N 39°13' W 076°32'0 0.0
2018-Feb-15 12:30N 39°13' W 076°32'0 0.0
2018-Feb-15 12:00N 39°13' W 076°32'0 0.0
2018-Feb-15 11:30N 39°13' W 076°32'0 0.0
2018-Feb-15 11:00N 39°13' W 076°32'0 0.0
2018-Feb-15 10:29N 39°13' W 076°32'0 0.0
2018-Feb-15 10:00N 39°13' W 076°32'0 0.0
2018-Feb-15 09:30N 39°13' W 076°32'0 0.0
2018-Feb-15 09:00N 39°13' W 076°32'0 0.0
2018-Feb-15 08:30N 39°13' W 076°32'2 3.6
2018-Feb-15 08:00N 39°13' W 076°35'2 3.9
2018-Feb-15 07:30N 39°13' W 076°32'3 4.7
2018-Feb-15 06:58N 39°11' W 076°31'0 0.4
2018-Feb-15 06:30N 39°11' W 076°31'0 0.1
2018-Feb-15 05:07N 39°11' W 076°31'1 6.0
2018-Feb-15 05:00N 39°12' W 076°31'4 7.2
2018-Feb-15 04:30N 39°13' W 076°35'2 3.3
2018-Feb-15 04:00N 39°13' W 076°33'3 5.2
2018-Feb-15 03:29N 39°11' W 076°31'0 1.0
2018-Feb-15 03:00N 39°11' W 076°31'2 4.9
2018-Feb-15 02:30N 39°13' W 076°32'2 3.7
2018-Feb-15 02:00N 39°13' W 076°35'4 7.5
2018-Feb-15 01:30N 39°11' W 076°31'1 1.3
2018-Feb-15 01:00N 39°11' W 076°31'0 0.5
2018-Feb-15 00:30N 39°11' W 076°31'2 3.5
2018-Feb-15 00:00N 39°13' W 076°31'3 5.2
2018-Feb-14 23:30N 39°13' W 076°35'1 3.0
2018-Feb-14 23:00N 39°13' W 076°33'1 1.1
2018-Feb-14 22:30N 39°13' W 076°32'0 0.0
2018-Feb-14 22:00N 39°13' W 076°32'0 0.0
2018-Feb-14 21:20N 39°13' W 076°32'0 0.0
2018-Feb-14 21:00N 39°13' W 076°32'0 0.0
2018-Feb-14 20:27N 39°13' W 076°32'0 0.0
2018-Feb-14 12:51N 39°13' W 076°32'0 0.0
2018-Feb-14 12:30N 39°13' W 076°32'0 0.0
2018-Feb-14 12:00N 39°13' W 076°32'0 0.0
2018-Feb-14 11:27N 39°13' W 076°32'0 0.0
2018-Feb-14 11:00N 39°13' W 076°32'0 0.0
2018-Feb-14 10:30N 39°13' W 076°32'0 0.0
2018-Feb-14 09:53N 39°13' W 076°32'0 0.0
2018-Feb-14 09:30N 39°13' W 076°32'0 0.0
2018-Feb-14 08:58N 39°13' W 076°32'0 0.0
2018-Feb-14 08:30N 39°13' W 076°32'0 0.0
2018-Feb-14 07:59N 39°13' W 076°32'0 0.0
2018-Feb-14 07:29N 39°13' W 076°32'0 0.0
2018-Feb-14 06:56N 39°13' W 076°32'0 0.0
2018-Feb-14 06:30N 39°13' W 076°32'0 0.0
2018-Feb-14 05:59N 39°13' W 076°32'0 0.0
2018-Feb-14 05:29N 39°13' W 076°32'0 0.0
2018-Feb-14 04:55N 39°13' W 076°32'0 0.0
2018-Feb-14 04:25N 39°13' W 076°32'0 0.0
2018-Feb-14 04:00N 39°13' W 076°32'  

Dump ship's entire track history